createdAt,value
2022-08-16T00:00:05.023Z,100204.41
2022-08-16T00:02:42.029Z,100205.09
2022-08-16T00:05:09.480Z,100205.94
2022-08-16T00:07:33.754Z,100205.53
2022-08-16T00:10:00.669Z,100202.59
2022-08-16T00:12:24.936Z,100200.47
2022-08-16T00:14:50.436Z,100204.25
2022-08-16T00:17:20.478Z,100201.31
2022-08-16T00:19:46.195Z,100208.06
2022-08-16T00:22:13.365Z,100211.66
2022-08-16T00:24:38.841Z,100217.09
2022-08-16T00:27:05.887Z,100227.41
2022-08-16T00:29:33.244Z,100227.22
2022-08-16T00:32:01.645Z,100227.00
2022-08-16T00:34:45.225Z,100225.09
2022-08-16T00:37:16.886Z,100226.78
2022-08-16T00:39:41.285Z,100228.47
2022-08-16T00:42:10.160Z,100230.34
2022-08-16T00:44:36.230Z,100232.47
2022-08-16T00:47:06.772Z,100225.31
2022-08-16T00:49:39.747Z,100229.09
2022-08-16T00:52:30.190Z,100233.28
2022-08-16T00:54:52.738Z,100220.69
2022-08-16T00:57:18.826Z,100225.91
2022-08-16T00:59:50.718Z,100225.72
2022-08-16T01:02:31.761Z,100219.84
2022-08-16T01:05:10.561Z,100228.25
2022-08-16T01:07:51.860Z,100232.03
2022-08-16T01:10:17.363Z,100238.78
2022-08-16T01:12:42.577Z,100234.97
2022-08-16T01:15:08.968Z,100246.09
2022-08-16T01:17:36.922Z,100245.28
2022-08-16T01:20:23.947Z,100246.31
2022-08-16T01:22:55.984Z,100246.09
2022-08-16T01:25:34.098Z,100253.66
2022-08-16T01:28:02.881Z,100256.81
2022-08-16T01:30:33.544Z,100260.56
2022-08-16T01:33:14.432Z,100264.34
2022-08-16T01:35:47.636Z,100266.66
2022-08-16T01:38:25.550Z,100267.91
2022-08-16T01:40:54.216Z,100265.84
2022-08-16T01:43:19.560Z,100278.22
2022-08-16T01:45:46.122Z,100277.59
2022-08-16T01:48:19.810Z,100279.47
2022-08-16T01:51:09.690Z,100276.69
2022-08-16T01:53:30.796Z,100269.94
2022-08-16T01:56:06.704Z,100268.69
2022-08-16T01:58:32.532Z,100274.38
2022-08-16T02:00:57.572Z,100264.47
2022-08-16T02:03:24.563Z,100273.94
2022-08-16T02:05:51.926Z,100280.44
2022-08-16T02:08:32.838Z,100269.69
2022-08-16T02:10:58.918Z,100274.94
2022-08-16T02:13:27.779Z,100282.47
2022-08-16T02:15:56.528Z,100283.72
2022-08-16T02:18:20.563Z,100287.09
2022-08-16T02:20:53.452Z,100287.50
2022-08-16T02:23:19.422Z,100287.94
2022-08-16T02:25:52.077Z,100278.22
2022-08-16T02:28:19.538Z,100281.16
2022-08-16T02:30:50.483Z,100281.78
2022-08-16T02:33:15.868Z,100285.31
2022-08-16T02:35:54.607Z,100277.56
2022-08-16T02:38:24.973Z,100276.31
2022-08-16T02:40:50.231Z,100278.78
2022-08-16T02:43:14.765Z,100273.75
2022-08-16T02:45:39.223Z,100270.38
2022-08-16T02:48:29.530Z,100277.06
2022-08-16T02:51:10.507Z,100284.81
2022-08-16T02:53:39.631Z,100272.44
2022-08-16T02:56:05.375Z,100274.13
2022-08-16T02:58:34.315Z,100281.00
2022-08-16T03:00:58.740Z,100273.25
2022-08-16T03:03:26.157Z,100276.13
2022-08-16T03:05:52.513Z,100284.34
2022-08-16T03:08:50.344Z,100282.84
2022-08-16T03:11:02.195Z,100283.66
2022-08-16T03:13:26.020Z,100285.72
2022-08-16T03:15:50.560Z,100288.22
2022-08-16T03:18:18.766Z,100286.53
2022-08-16T03:21:00.808Z,100294.97
2022-08-16T03:23:24.792Z,100288.63
2022-08-16T03:25:49.196Z,100295.97
2022-08-16T03:28:13.035Z,100297.00
2022-08-16T03:30:38.153Z,100292.59
2022-08-16T03:33:05.171Z,100294.50
2022-08-16T03:35:42.228Z,100299.97
2022-08-16T03:38:35.996Z,100295.72
2022-08-16T03:41:24.524Z,100296.13
2022-08-16T03:43:54.584Z,100304.47
2022-08-16T03:46:47.903Z,100303.16
2022-08-16T03:49:10.816Z,100302.34
2022-08-16T03:51:36.489Z,100312.34
2022-08-16T03:54:12.563Z,100302.09
2022-08-16T03:56:37.985Z,100310.00
2022-08-16T03:59:02.404Z,100307.94
2022-08-16T04:01:32.900Z,100313.72
2022-08-16T04:03:58.467Z,100311.94
2022-08-16T04:06:24.000Z,100314.56
2022-08-16T04:08:48.840Z,100318.84
2022-08-16T04:11:16.293Z,100319.94
2022-08-16T04:13:58.837Z,100325.53
2022-08-16T04:16:27.283Z,100323.91
2022-08-16T04:19:02.119Z,100324.56
2022-08-16T04:21:29.817Z,100322.69
2022-08-16T04:23:54.834Z,100319.56
2022-08-16T04:26:21.109Z,100318.50
2022-08-16T04:28:53.288Z,100320.00
2022-08-16T04:31:18.880Z,100322.34
2022-08-16T04:33:50.653Z,100320.88
2022-08-16T04:36:20.122Z,100324.50
2022-08-16T04:38:45.027Z,100324.03
2022-08-16T04:41:09.952Z,100330.53
2022-08-16T04:43:38.605Z,100329.94
2022-08-16T04:46:33.192Z,100338.34
2022-08-16T04:48:53.827Z,100330.56
2022-08-16T04:51:20.360Z,100335.44
2022-08-16T04:53:45.892Z,100337.97
2022-08-16T04:56:11.895Z,100331.72
2022-08-16T04:58:45.470Z,100329.72
2022-08-16T05:01:12.119Z,100334.38
2022-08-16T05:03:35.874Z,100334.66
2022-08-16T05:06:09.232Z,100344.94
2022-08-16T05:08:34.471Z,100337.19
2022-08-16T05:11:15.632Z,100338.13
2022-08-16T05:13:47.820Z,100342.50
2022-08-16T05:16:22.893Z,100347.56
2022-08-16T05:18:56.868Z,100349.72
2022-08-16T05:21:24.361Z,100338.03
2022-08-16T05:23:58.757Z,100348.78
2022-08-16T05:26:30.996Z,100344.38
2022-08-16T05:28:58.040Z,100341.50
2022-08-16T05:31:21.930Z,100346.56
2022-08-16T05:33:47.305Z,100347.06
2022-08-16T05:36:20.943Z,100347.94
2022-08-16T05:38:48.421Z,100354.06
2022-08-16T05:41:13.855Z,100352.19
2022-08-16T05:43:43.682Z,100358.56
2022-08-16T05:46:30.423Z,100360.88
2022-08-16T05:49:03.123Z,100356.69
2022-08-16T05:51:35.320Z,100351.47
2022-08-16T05:54:03.428Z,100358.25
2022-08-16T05:56:27.504Z,100357.41
2022-08-16T05:58:51.320Z,100353.13
2022-08-16T06:01:17.823Z,100355.16
2022-08-16T06:03:45.421Z,100356.50
2022-08-16T06:06:31.963Z,100359.00
2022-08-16T06:08:59.192Z,100359.63
2022-08-16T06:11:23.231Z,100360.88
2022-08-16T06:13:55.358Z,100359.25
2022-08-16T06:16:31.904Z,100361.56
2022-08-16T06:18:56.735Z,100364.09
2022-08-16T06:21:22.609Z,100363.41
2022-08-16T06:23:53.985Z,100368.84
2022-08-16T06:26:18.736Z,100371.75
2022-08-16T06:28:44.594Z,100361.66
2022-08-16T06:31:15.121Z,100375.75
2022-08-16T06:33:45.163Z,100379.16
2022-08-16T06:36:14.091Z,100379.84
2022-08-16T06:38:56.161Z,100386.41
2022-08-16T06:41:39.734Z,100388.44
2022-08-16T06:44:20.715Z,100392.13
2022-08-16T06:46:50.654Z,100398.41
2022-08-16T06:49:18.464Z,100400.44
2022-08-16T06:51:48.028Z,100407.88
2022-08-16T06:54:16.984Z,100402.97
2022-08-16T06:56:42.603Z,100406.31
2022-08-16T06:59:11.189Z,100412.03
2022-08-16T07:01:46.250Z,100409.63
2022-08-16T07:04:32.832Z,100405.06
2022-08-16T07:06:59.802Z,100409.50
2022-08-16T07:09:23.713Z,100408.00
2022-08-16T07:11:53.701Z,100404.94
2022-08-16T07:14:27.291Z,100413.91
2022-08-16T07:16:58.239Z,100418.22
2022-08-16T07:20:03.950Z,100415.13
2022-08-16T07:22:08.445Z,100412.81
2022-08-16T07:24:51.552Z,100411.53
2022-08-16T07:27:15.628Z,100406.75
2022-08-16T07:29:40.900Z,100416.94
2022-08-16T07:32:07.251Z,100423.88
2022-08-16T07:34:35.278Z,100414.06
2022-08-16T07:37:01.476Z,100426.34
2022-08-16T07:39:43.403Z,100423.38
2022-08-16T07:42:07.934Z,100424.13
2022-08-16T07:44:47.611Z,100424.97
2022-08-16T07:47:14.124Z,100433.13
2022-08-16T07:49:39.244Z,100427.94
2022-08-16T07:52:18.872Z,100437.69
2022-08-16T07:54:45.957Z,100440.78
2022-08-16T07:57:13.368Z,100435.91
2022-08-16T07:59:46.209Z,100446.28
2022-08-16T08:02:12.664Z,100449.72
2022-08-16T08:04:45.287Z,100449.16
2022-08-16T08:07:12.290Z,100443.59
2022-08-16T08:09:36.413Z,100450.44
2022-08-16T08:12:08.015Z,100446.13
2022-08-16T08:14:53.400Z,100441.88
2022-08-16T08:17:17.584Z,100447.66
2022-08-16T08:19:42.595Z,100445.00
2022-08-16T08:22:22.028Z,100449.16
2022-08-16T08:24:51.708Z,100453.41
2022-08-16T08:27:22.752Z,100451.94
2022-08-16T08:30:49.945Z,100463.81
2022-08-16T08:32:58.045Z,100468.78
2022-08-16T08:35:17.685Z,100472.97
2022-08-16T08:37:55.221Z,100471.03
2022-08-16T08:40:24.698Z,100467.56
2022-08-16T08:42:54.441Z,100466.19
2022-08-16T08:45:46.958Z,100468.91
2022-08-16T08:48:09.071Z,100470.88
2022-08-16T08:50:52.792Z,100472.94
2022-08-16T08:53:18.439Z,100473.34
2022-08-16T08:55:59.181Z,100466.72
2022-08-16T08:58:23.783Z,100470.41
2022-08-16T09:01:11.651Z,100472.75
2022-08-16T09:03:36.209Z,100463.53
2022-08-16T09:06:00.578Z,100470.25
2022-08-16T09:08:27.587Z,100472.66
2022-08-16T09:11:02.142Z,100477.09
2022-08-16T09:13:28.541Z,100471.91
2022-08-16T09:15:57.176Z,100474.66
2022-08-16T09:18:26.228Z,100466.28
2022-08-16T09:20:58.902Z,100478.38
2022-08-16T09:23:27.131Z,100480.31
2022-08-16T09:25:51.703Z,100473.44
2022-08-16T09:29:13.714Z,100482.44
2022-08-16T09:31:16.593Z,100479.84
2022-08-16T09:33:41.993Z,100476.69
2022-08-16T09:36:12.340Z,100483.22
2022-08-16T09:38:52.821Z,100485.19
2022-08-16T09:41:24.512Z,100491.44
2022-08-16T09:43:59.704Z,100487.81
2022-08-16T09:46:33.352Z,100472.59
2022-08-16T09:49:12.083Z,100477.75
2022-08-16T09:51:36.908Z,100481.50
2022-08-16T09:54:02.801Z,100477.06
2022-08-16T09:56:31.754Z,100472.06
2022-08-16T09:59:03.820Z,100467.84
2022-08-16T10:01:31.943Z,100473.44
2022-08-16T10:04:01.874Z,100474.44
2022-08-16T10:06:33.570Z,100479.03
2022-08-16T10:09:05.627Z,100472.56
2022-08-16T10:11:50.346Z,100477.81
2022-08-16T10:14:16.021Z,100457.38
2022-08-16T10:16:39.949Z,100472.91
2022-08-16T10:19:06.620Z,100472.63
2022-08-16T10:21:32.301Z,100465.34
2022-08-16T10:23:56.181Z,100466.06
2022-08-16T10:27:17.214Z,100466.16
2022-08-16T10:29:06.984Z,100456.94
2022-08-16T10:31:45.929Z,100465.97
2022-08-16T10:34:31.416Z,100456.75
2022-08-16T10:36:54.572Z,100469.88
2022-08-16T10:39:18.347Z,100470.47
2022-08-16T10:41:45.266Z,100471.06
2022-08-16T10:44:10.315Z,100469.97
2022-08-16T10:46:41.773Z,100471.88
2022-08-16T10:49:05.861Z,100467.69
2022-08-16T10:51:34.426Z,100486.13
2022-08-16T10:54:29.608Z,100469.66
2022-08-16T10:56:57.105Z,100472.41
2022-08-16T10:59:39.196Z,100477.66
2022-08-16T11:02:59.225Z,100475.47
2022-08-16T11:05:08.618Z,100471.03
2022-08-16T11:07:53.546Z,100464.75
2022-08-16T11:10:20.949Z,100472.41
2022-08-16T11:15:55.508Z,100472.34
2022-08-16T11:18:48.409Z,100469.84
2022-08-16T11:21:05.142Z,100472.44
2022-08-16T11:23:30.105Z,100473.47
2022-08-16T11:26:07.668Z,100467.31
2022-08-16T11:31:23.712Z,100473.19
2022-08-16T11:33:55.122Z,100480.25
2022-08-16T11:36:27.542Z,100475.09
2022-08-16T11:38:57.480Z,100477.53
2022-08-16T11:41:22.080Z,100478.88
2022-08-16T11:43:46.995Z,100473.78
2022-08-16T11:46:44.899Z,100477.53
2022-08-16T11:48:59.568Z,100480.72
2022-08-16T11:51:23.342Z,100473.78
2022-08-16T11:53:47.119Z,100475.44
2022-08-16T11:56:10.967Z,100469.34
2022-08-16T11:58:39.640Z,100479.22
2022-08-16T12:01:05.699Z,100469.19
2022-08-16T12:03:35.802Z,100474.19
2022-08-16T12:06:03.977Z,100466.00
2022-08-16T12:08:28.210Z,100459.13
2022-08-16T12:10:52.672Z,100462.88
2022-08-16T12:13:16.791Z,100469.94
2022-08-16T12:15:41.373Z,100473.16
2022-08-16T12:18:06.938Z,100474.09
2022-08-16T12:20:37.884Z,100476.50
2022-08-16T12:23:04.507Z,100475.38
2022-08-16T12:25:31.443Z,100466.97
2022-08-16T12:27:56.340Z,100474.59
2022-08-16T12:30:31.188Z,100467.50
2022-08-16T12:32:57.529Z,100472.94
2022-08-16T12:35:24.535Z,100476.56
2022-08-16T12:37:56.559Z,100475.56
2022-08-16T12:40:25.535Z,100469.84
2022-08-16T12:42:59.061Z,100469.91
2022-08-16T12:45:24.684Z,100470.66
2022-08-16T12:48:31.576Z,100471.59
2022-08-16T12:50:50.335Z,100468.97
2022-08-16T12:53:14.144Z,100467.63
2022-08-16T12:55:43.808Z,100462.44
2022-08-16T12:58:13.910Z,100469.16
2022-08-16T13:00:51.517Z,100469.91
2022-08-16T13:03:16.413Z,100467.50
2022-08-16T13:05:47.717Z,100460.91
2022-08-16T13:08:21.465Z,100461.91
2022-08-16T13:10:52.607Z,100461.16
2022-08-16T13:13:24.529Z,100464.78
2022-08-16T13:15:55.718Z,100468.16
2022-08-16T13:18:27.570Z,100471.44
2022-08-16T13:20:59.392Z,100460.94
2022-08-16T13:23:23.323Z,100463.22
2022-08-16T13:25:51.308Z,100465.84
2022-08-16T13:28:20.727Z,100466.75
2022-08-16T13:30:47.635Z,100467.25
2022-08-16T13:33:18.241Z,100468.94
2022-08-16T13:35:56.112Z,100464.13
2022-08-16T13:38:25.818Z,100471.50
2022-08-16T13:40:51.666Z,100465.00
2022-08-16T13:43:16.064Z,100460.81
2022-08-16T13:45:44.861Z,100455.03
2022-08-16T13:48:09.037Z,100460.75
2022-08-16T13:50:49.311Z,100460.34
2022-08-16T13:53:15.961Z,100463.50
2022-08-16T13:55:40.923Z,100453.81
2022-08-16T13:58:34.739Z,100459.13
2022-08-16T14:00:52.723Z,100464.53
2022-08-16T14:03:18.296Z,100464.75
2022-08-16T14:05:43.138Z,100465.34
2022-08-16T14:08:06.883Z,100464.38
2022-08-16T14:10:31.764Z,100460.63
2022-08-16T14:12:55.577Z,100458.47
2022-08-16T14:15:22.360Z,100453.94
2022-08-16T14:18:15.177Z,100459.47
2022-08-16T14:20:30.752Z,100458.31
2022-08-16T14:22:57.031Z,100456.78
2022-08-16T14:25:22.925Z,100460.38
2022-08-16T14:27:47.157Z,100458.13
2022-08-16T14:30:15.449Z,100452.69
2022-08-16T14:32:41.535Z,100455.06
2022-08-16T14:35:09.301Z,100461.09
2022-08-16T14:37:33.034Z,100461.00
2022-08-16T14:39:57.099Z,100458.00
2022-08-16T14:42:24.392Z,100458.03
2022-08-16T14:44:49.916Z,100452.25
2022-08-16T14:47:14.141Z,100453.91
2022-08-16T14:49:40.798Z,100445.63
2022-08-16T14:52:08.628Z,100443.31
2022-08-16T14:54:32.461Z,100441.44
2022-08-16T14:56:56.157Z,100440.28
2022-08-16T14:59:20.576Z,100447.13
2022-08-16T15:01:58.987Z,100447.47
2022-08-16T15:04:40.585Z,100447.41
2022-08-16T15:07:12.868Z,100442.22
2022-08-16T15:09:44.398Z,100448.91
2022-08-16T15:12:26.541Z,100445.28
2022-08-16T15:14:56.825Z,100441.06
2022-08-16T15:17:21.816Z,100446.44
2022-08-16T15:19:49.449Z,100445.22
2022-08-16T15:22:29.952Z,100453.22
2022-08-16T15:24:58.854Z,100445.69
2022-08-16T15:27:22.529Z,100433.50
2022-08-16T15:29:47.257Z,100435.94
2022-08-16T15:32:26.424Z,100436.25
2022-08-16T15:34:50.940Z,100432.34
2022-08-16T15:37:42.136Z,100437.41
2022-08-16T15:40:16.483Z,100435.97
2022-08-16T15:42:57.966Z,100437.91
2022-08-16T15:45:37.444Z,100438.47
2022-08-16T15:48:01.194Z,100442.94
2022-08-16T15:50:29.255Z,100433.75
2022-08-16T15:52:58.585Z,100450.56
2022-08-16T15:55:34.655Z,100451.94
2022-08-16T15:57:59.436Z,100438.22
2022-08-16T16:00:26.836Z,100448.69
2022-08-16T16:02:51.197Z,100449.41
2022-08-16T16:05:17.137Z,100458.06
2022-08-16T16:07:56.290Z,100442.50
2022-08-16T16:10:30.044Z,100459.75
2022-08-16T16:12:55.040Z,100461.72
2022-08-16T16:15:22.863Z,100455.75
2022-08-16T16:17:51.198Z,100452.69
2022-08-16T16:20:16.457Z,100451.25
2022-08-16T16:22:40.129Z,100450.13
2022-08-16T16:25:04.168Z,100456.78
2022-08-16T16:27:29.629Z,100459.81
2022-08-16T16:30:01.914Z,100456.91
2022-08-16T16:32:34.673Z,100458.41
2022-08-16T16:34:58.997Z,100461.38
2022-08-16T16:37:23.942Z,100470.84
2022-08-16T16:39:47.740Z,100470.59
2022-08-16T16:42:25.653Z,100472.50
2022-08-16T16:45:00.324Z,100468.75
2022-08-16T16:47:24.864Z,100473.72
2022-08-16T16:49:50.611Z,100474.34
2022-08-16T16:52:31.286Z,100480.00
2022-08-16T16:55:00.907Z,100485.75
2022-08-16T16:57:42.866Z,100478.31
2022-08-16T17:00:30.351Z,100480.84
2022-08-16T17:02:56.651Z,100489.09
2022-08-16T17:05:20.448Z,100496.09
2022-08-16T17:07:44.621Z,100488.56
2022-08-16T17:10:09.792Z,100490.78
2022-08-16T17:12:57.538Z,100497.78
2022-08-16T17:15:19.565Z,100508.69
2022-08-16T17:19:14.724Z,100505.41
2022-08-16T17:20:27.630Z,100502.13
2022-08-16T17:25:36.956Z,100513.94
2022-08-16T17:28:02.732Z,100512.22
2022-08-16T17:30:47.967Z,100504.19
2022-08-16T17:33:13.215Z,100512.03
2022-08-16T17:35:40.332Z,100514.44
2022-08-16T17:38:06.939Z,100514.06
2022-08-16T17:39:26.603Z,100505.72
2022-08-16T17:40:40.987Z,100515.91
2022-08-16T17:43:14.081Z,100515.19
2022-08-16T17:45:37.960Z,100516.22
2022-08-16T17:48:03.160Z,100519.31
2022-08-16T17:50:26.940Z,100529.16
2022-08-16T17:52:51.881Z,100531.50
2022-08-16T17:55:24.441Z,100525.03
2022-08-16T17:57:48.184Z,100534.03
2022-08-16T18:00:20.262Z,100528.50
2022-08-16T18:02:44.859Z,100531.75
2022-08-16T18:05:13.224Z,100532.81
2022-08-16T18:07:37.611Z,100539.06
2022-08-16T18:10:01.700Z,100533.47
2022-08-16T18:12:51.247Z,100525.56
2022-08-16T18:15:16.714Z,100532.59
2022-08-16T18:17:40.849Z,100527.50
2022-08-16T18:20:06.824Z,100530.03
2022-08-16T18:22:33.849Z,100541.81
2022-08-16T18:24:57.738Z,100550.00
2022-08-16T18:27:25.150Z,100548.47
2022-08-16T18:29:52.067Z,100540.91
2022-08-16T18:32:17.058Z,100558.59
2022-08-16T18:34:48.800Z,100548.41
2022-08-16T18:37:12.909Z,100556.81
2022-08-16T18:39:38.720Z,100557.25
2022-08-16T18:42:10.570Z,100562.31
2022-08-16T18:44:38.795Z,100565.41
2022-08-16T18:47:02.610Z,100563.13
2022-08-16T18:49:27.399Z,100565.13
2022-08-16T18:51:51.234Z,100567.41
2022-08-16T18:54:19.083Z,100572.44
2022-08-16T18:56:56.902Z,100579.34
2022-08-16T18:59:21.797Z,100582.66
2022-08-16T19:01:45.802Z,100580.44
2022-08-16T19:04:55.039Z,100584.00
2022-08-16T19:06:55.624Z,100581.19
2022-08-16T19:09:19.338Z,100590.16
2022-08-16T19:11:44.572Z,100585.19
2022-08-16T19:14:08.277Z,100592.44
2022-08-16T19:16:32.044Z,100591.28
2022-08-16T19:18:55.770Z,100589.69
2022-08-16T19:21:19.624Z,100590.38
2022-08-16T19:23:44.978Z,100588.50
2022-08-16T19:26:24.486Z,100585.72
2022-08-16T19:28:58.460Z,100594.25
2022-08-16T19:31:26.636Z,100591.56
2022-08-16T19:33:54.862Z,100594.75
2022-08-16T19:36:31.456Z,100599.94
2022-08-16T19:38:57.625Z,100609.09
2022-08-16T19:41:28.921Z,100611.47
2022-08-16T19:43:54.008Z,100607.69
2022-08-16T19:46:17.841Z,100610.97
2022-08-16T19:48:41.609Z,100608.03
2022-08-16T19:51:05.831Z,100608.72
2022-08-16T19:53:29.680Z,100606.63
2022-08-16T19:55:53.455Z,100605.84
2022-08-16T19:58:18.080Z,100611.59
2022-08-16T20:00:45.655Z,100611.41
2022-08-16T20:03:14.158Z,100608.47
2022-08-16T20:05:38.021Z,100620.38
2022-08-16T20:08:04.874Z,100613.66
2022-08-16T20:10:29.317Z,100621.06
2022-08-16T20:13:02.469Z,100620.00
2022-08-16T20:15:31.180Z,100622.56
2022-08-16T20:17:57.116Z,100623.00
2022-08-16T20:20:26.003Z,100632.09
2022-08-16T20:22:53.916Z,100629.81
2022-08-16T20:25:28.117Z,100624.16
2022-08-16T20:27:52.581Z,100625.44
2022-08-16T20:30:17.852Z,100635.38
2022-08-16T20:32:43.356Z,100631.97
2022-08-16T20:35:11.365Z,100627.34
2022-08-16T20:37:37.216Z,100634.56
2022-08-16T20:40:18.169Z,100642.16
2022-08-16T20:42:44.761Z,100634.97
2022-08-16T20:45:10.599Z,100632.22
2022-08-16T20:47:34.384Z,100642.97
2022-08-16T20:50:01.405Z,100634.13
2022-08-16T20:52:27.430Z,100636.03
2022-08-16T20:54:51.768Z,100645.75
2022-08-16T20:57:16.748Z,100634.13
2022-08-16T20:59:41.496Z,100640.88
2022-08-16T21:02:05.464Z,100640.88
2022-08-16T21:04:30.829Z,100640.28
2022-08-16T21:06:55.503Z,100638.56
2022-08-16T21:09:20.893Z,100636.03
2022-08-16T21:11:44.725Z,100641.50
2022-08-16T21:14:10.897Z,100640.03
2022-08-16T21:16:34.653Z,100633.09
2022-08-16T21:18:58.380Z,100630.75
2022-08-16T21:21:22.764Z,100627.81
2022-08-16T21:23:47.977Z,100634.34
2022-08-16T21:26:13.327Z,100636.03
2022-08-16T21:28:42.513Z,100637.66
2022-08-16T21:31:07.409Z,100630.50
2022-08-16T21:33:33.036Z,100634.91
2022-08-16T21:35:56.857Z,100630.28
2022-08-16T21:38:29.655Z,100634.69
2022-08-16T21:40:54.242Z,100635.50
2022-08-16T21:43:22.924Z,100641.16
2022-08-16T21:45:48.400Z,100638.66
2022-08-16T21:48:17.873Z,100643.88
2022-08-16T21:50:58.376Z,100642.41
2022-08-16T21:53:26.624Z,100633.97
2022-08-16T21:55:56.004Z,100636.94
2022-08-16T21:58:21.571Z,100635.88
2022-08-16T22:00:45.589Z,100641.34
2022-08-16T22:03:11.300Z,100640.28
2022-08-16T22:05:36.148Z,100643.63
2022-08-16T22:08:01.665Z,100647.00
2022-08-16T22:11:06.843Z,100640.22
2022-08-16T22:13:19.200Z,100650.72
2022-08-16T22:15:45.748Z,100649.25
2022-08-16T22:18:09.412Z,100654.06
2022-08-16T22:20:33.215Z,100652.81
2022-08-16T22:23:07.329Z,100659.09
2022-08-16T22:25:31.140Z,100662.00
2022-08-16T22:27:54.847Z,100662.88
2022-08-16T22:30:18.801Z,100670.44
2022-08-16T22:32:45.724Z,100669.53
2022-08-16T22:35:14.144Z,100668.50
2022-08-16T22:37:38.314Z,100672.63
2022-08-16T22:40:22.250Z,100673.44
2022-08-16T22:42:50.865Z,100677.63
2022-08-16T22:45:16.420Z,100684.75
2022-08-16T22:47:40.126Z,100683.06
2022-08-16T22:50:06.091Z,100676.94
2022-08-16T22:52:50.834Z,100680.69
2022-08-16T22:55:13.675Z,100682.38
2022-08-16T22:57:37.319Z,100676.03
2022-08-16T23:00:01.068Z,100678.75
2022-08-16T23:02:24.761Z,100673.88
2022-08-16T23:04:48.565Z,100670.94
2022-08-16T23:07:13.714Z,100678.47
2022-08-16T23:09:37.540Z,100677.44
2022-08-16T23:12:06.195Z,100679.34
2022-08-16T23:14:30.027Z,100669.25
2022-08-16T23:16:53.768Z,100672.38
2022-08-16T23:19:18.616Z,100672.56
2022-08-16T23:21:46.991Z,100668.34
2022-08-16T23:24:15.528Z,100669.53
2022-08-16T23:26:47.483Z,100669.53
2022-08-16T23:29:22.215Z,100669.28
2022-08-16T23:31:49.847Z,100674.94
2022-08-16T23:34:13.767Z,100674.09
2022-08-16T23:36:37.564Z,100670.47
2022-08-16T23:39:01.248Z,100672.16
2022-08-16T23:41:26.429Z,100662.09
2022-08-16T23:43:50.176Z,100663.94
2022-08-16T23:46:19.549Z,100665.84
2022-08-16T23:49:45.124Z,100668.50
2022-08-16T23:51:29.030Z,100660.06
2022-08-16T23:53:55.686Z,100655.44
2022-08-16T23:56:22.024Z,100660.66
2022-08-16T23:58:49.390Z,100657.94
